sensor_id;sensor_type;location;lat;lon;timestamp;P1;durP1;ratioP1;P2;durP2;ratioP2
3267;SDS011;1646;52.450;13.326;2022-07-06T00:00:03;1.97;;;1.00;;
3267;SDS011;1646;52.450;13.326;2022-07-06T00:05:03;3.43;;;1.53;;
3267;SDS011;1646;52.450;13.326;2022-07-06T00:10:01;3.23;;;1.10;;
3267;SDS011;1646;52.450;13.326;2022-07-06T00:15:01;0.97;;;0.80;;
3267;SDS011;1646;52.450;13.326;2022-07-06T00:19:59;2.70;;;1.00;;
3267;SDS011;1646;52.450;13.326;2022-07-06T00:24:57;4.43;;;1.33;;
3267;SDS011;1646;52.450;13.326;2022-07-06T00:29:55;4.40;;;1.20;;
3267;SDS011;1646;52.450;13.326;2022-07-06T00:34:54;2.77;;;1.20;;
3267;SDS011;1646;52.450;13.326;2022-07-06T00:39:52;2.60;;;0.90;;
3267;SDS011;1646;52.450;13.326;2022-07-06T00:44:50;4.23;;;1.30;;
3267;SDS011;1646;52.450;13.326;2022-07-06T00:49:48;2.97;;;0.90;;
3267;SDS011;1646;52.450;13.326;2022-07-06T00:55:05;1.47;;;1.37;;
3267;SDS011;1646;52.450;13.326;2022-07-06T01:00:05;4.07;;;1.10;;
3267;SDS011;1646;52.450;13.326;2022-07-06T01:05:06;2.53;;;1.20;;
3267;SDS011;1646;52.450;13.326;2022-07-06T01:10:08;1.50;;;0.97;;
3267;SDS011;1646;52.450;13.326;2022-07-06T01:15:09;6.57;;;1.20;;
3267;SDS011;1646;52.450;13.326;2022-07-06T01:20:13;3.63;;;1.27;;
3267;SDS011;1646;52.450;13.326;2022-07-06T01:25:11;2.67;;;1.20;;
3267;SDS011;1646;52.450;13.326;2022-07-06T01:30:10;1.53;;;0.90;;
3267;SDS011;1646;52.450;13.326;2022-07-06T01:35:11;3.20;;;1.20;;
3267;SDS011;1646;52.450;13.326;2022-07-06T01:40:11;8.50;;;1.40;;
3267;SDS011;1646;52.450;13.326;2022-07-06T01:45:10;1.00;;;0.90;;
3267;SDS011;1646;52.450;13.326;2022-07-06T01:50:10;5.37;;;1.20;;
3267;SDS011;1646;52.450;13.326;2022-07-06T01:55:14;5.73;;;1.30;;
3267;SDS011;1646;52.450;13.326;2022-07-06T02:00:13;4.40;;;1.30;;
3267;SDS011;1646;52.450;13.326;2022-07-06T02:05:16;2.40;;;1.43;;
3267;SDS011;1646;52.450;13.326;2022-07-06T02:10:16;7.73;;;2.13;;
3267;SDS011;1646;52.450;13.326;2022-07-06T02:15:15;4.97;;;1.43;;
3267;SDS011;1646;52.450;13.326;2022-07-06T02:20:13;3.17;;;1.40;;
3267;SDS011;1646;52.450;13.326;2022-07-06T02:25:11;2.57;;;1.20;;
3267;SDS011;1646;52.450;13.326;2022-07-06T02:30:11;1.23;;;1.13;;
3267;SDS011;1646;52.450;13.326;2022-07-06T02:35:10;1.53;;;1.30;;
3267;SDS011;1646;52.450;13.326;2022-07-06T02:40:09;1.60;;;1.37;;
3267;SDS011;1646;52.450;13.326;2022-07-06T02:45:09;1.97;;;1.20;;
3267;SDS011;1646;52.450;13.326;2022-07-06T02:50:10;4.53;;;2.60;;
3267;SDS011;1646;52.450;13.326;2022-07-06T02:55:09;1.50;;;1.23;;
3267;SDS011;1646;52.450;13.326;2022-07-06T03:00:10;2.60;;;1.30;;
3267;SDS011;1646;52.450;13.326;2022-07-06T03:05:10;3.20;;;1.50;;
3267;SDS011;1646;52.450;13.326;2022-07-06T03:10:08;2.40;;;1.63;;
3267;SDS011;1646;52.450;13.326;2022-07-06T03:15:07;2.33;;;1.30;;
3267;SDS011;1646;52.450;13.326;2022-07-06T03:20:10;3.60;;;1.40;;
3267;SDS011;1646;52.450;13.326;2022-07-06T03:25:09;2.73;;;1.10;;
3267;SDS011;1646;52.450;13.326;2022-07-06T03:30:09;3.70;;;2.03;;
3267;SDS011;1646;52.450;13.326;2022-07-06T03:35:15;2.33;;;1.60;;
3267;SDS011;1646;52.450;13.326;2022-07-06T03:40:14;11.60;;;1.80;;
3267;SDS011;1646;52.450;13.326;2022-07-06T03:45:15;2.70;;;1.27;;
3267;SDS011;1646;52.450;13.326;2022-07-06T03:50:16;3.40;;;1.40;;
3267;SDS011;1646;52.450;13.326;2022-07-06T03:55:14;5.60;;;1.60;;
3267;SDS011;1646;52.450;13.326;2022-07-06T04:00:18;1.87;;;1.77;;
3267;SDS011;1646;52.450;13.326;2022-07-06T04:05:25;1.93;;;1.53;;
3267;SDS011;1646;52.450;13.326;2022-07-06T04:10:24;2.53;;;1.80;;
3267;SDS011;1646;52.450;13.326;2022-07-06T04:15:24;3.97;;;1.87;;
3267;SDS011;1646;52.450;13.326;2022-07-06T04:20:22;6.27;;;1.57;;
3267;SDS011;1646;52.450;13.326;2022-07-06T04:25:23;7.60;;;1.73;;
3267;SDS011;1646;52.450;13.326;2022-07-06T04:30:23;5.10;;;1.80;;
3267;SDS011;1646;52.450;13.326;2022-07-06T04:35:24;3.03;;;1.97;;
3267;SDS011;1646;52.450;13.326;2022-07-06T04:40:24;3.97;;;1.67;;
3267;SDS011;1646;52.450;13.326;2022-07-06T04:45:27;4.90;;;1.43;;
3267;SDS011;1646;52.450;13.326;2022-07-06T04:50:27;8.03;;;1.60;;
3267;SDS011;1646;52.450;13.326;2022-07-06T04:55:35;1.77;;;1.20;;
3267;SDS011;1646;52.450;13.326;2022-07-06T05:00:33;4.70;;;1.80;;
3267;SDS011;1646;52.450;13.326;2022-07-06T05:05:33;4.50;;;1.50;;
3267;SDS011;1646;52.450;13.326;2022-07-06T05:10:31;3.73;;;1.00;;
3267;SDS011;1646;52.450;13.326;2022-07-06T05:15:29;6.80;;;1.47;;
3267;SDS011;1646;52.450;13.326;2022-07-06T05:20:28;2.70;;;1.10;;
3267;SDS011;1646;52.450;13.326;2022-07-06T05:25:28;5.97;;;1.77;;
3267;SDS011;1646;52.450;13.326;2022-07-06T05:30:27;2.53;;;1.47;;
3267;SDS011;1646;52.450;13.326;2022-07-06T05:35:25;7.17;;;1.60;;
3267;SDS011;1646;52.450;13.326;2022-07-06T05:40:44;3.57;;;1.80;;
3267;SDS011;1646;52.450;13.326;2022-07-06T05:45:43;9.23;;;1.23;;
3267;SDS011;1646;52.450;13.326;2022-07-06T05:50:43;4.07;;;1.10;;
3267;SDS011;1646;52.450;13.326;2022-07-06T05:55:41;3.70;;;1.23;;
3267;SDS011;1646;52.450;13.326;2022-07-06T06:00:41;11.03;;;1.23;;
3267;SDS011;1646;52.450;13.326;2022-07-06T06:05:44;5.73;;;1.30;;
3267;SDS011;1646;52.450;13.326;2022-07-06T06:10:44;4.10;;;1.40;;
3267;SDS011;1646;52.450;13.326;2022-07-06T06:15:48;3.43;;;1.23;;
3267;SDS011;1646;52.450;13.326;2022-07-06T06:20:46;4.10;;;1.20;;
3267;SDS011;1646;52.450;13.326;2022-07-06T06:25:45;4.27;;;1.40;;
3267;SDS011;1646;52.450;13.326;2022-07-06T06:30:43;4.80;;;1.60;;
3267;SDS011;1646;52.450;13.326;2022-07-06T06:35:43;6.27;;;1.37;;
3267;SDS011;1646;52.450;13.326;2022-07-06T06:40:42;6.40;;;1.33;;
3267;SDS011;1646;52.450;13.326;2022-07-06T06:45:40;6.53;;;1.50;;
3267;SDS011;1646;52.450;13.326;2022-07-06T06:50:38;4.37;;;1.20;;
3267;SDS011;1646;52.450;13.326;2022-07-06T06:55:38;2.90;;;1.30;;
3267;SDS011;1646;52.450;13.326;2022-07-06T07:00:36;3.97;;;1.60;;
3267;SDS011;1646;52.450;13.326;2022-07-06T07:05:34;3.50;;;1.20;;
3267;SDS011;1646;52.450;13.326;2022-07-06T07:10:32;2.17;;;1.30;;
3267;SDS011;1646;52.450;13.326;2022-07-06T07:15:32;7.00;;;1.80;;
3267;SDS011;1646;52.450;13.326;2022-07-06T07:20:30;6.90;;;1.07;;
3267;SDS011;1646;52.450;13.326;2022-07-06T07:25:29;4.60;;;1.60;;
3267;SDS011;1646;52.450;13.326;2022-07-06T07:30:27;2.10;;;1.27;;
3267;SDS011;1646;52.450;13.326;2022-07-06T07:35:27;4.10;;;1.43;;
3267;SDS011;1646;52.450;13.326;2022-07-06T07:40:25;3.63;;;1.20;;
3267;SDS011;1646;52.450;13.326;2022-07-06T07:45:23;3.90;;;0.93;;
3267;SDS011;1646;52.450;13.326;2022-07-06T07:50:21;3.90;;;0.80;;
3267;SDS011;1646;52.450;13.326;2022-07-06T07:55:21;1.57;;;0.80;;
3267;SDS011;1646;52.450;13.326;2022-07-06T08:00:37;5.33;;;1.07;;
3267;SDS011;1646;52.450;13.326;2022-07-06T08:05:36;1.53;;;0.90;;
3267;SDS011;1646;52.450;13.326;2022-07-06T08:10:35;3.43;;;1.00;;
3267;SDS011;1646;52.450;13.326;2022-07-06T08:15:53;2.90;;;1.00;;
3267;SDS011;1646;52.450;13.326;2022-07-06T08:20:51;4.43;;;1.87;;
3267;SDS011;1646;52.450;13.326;2022-07-06T08:26:14;5.77;;;1.20;;
3267;SDS011;1646;52.450;13.326;2022-07-06T08:31:13;11.33;;;1.20;;
3267;SDS011;1646;52.450;13.326;2022-07-06T08:36:31;3.63;;;1.03;;
3267;SDS011;1646;52.450;13.326;2022-07-06T08:41:31;1.53;;;0.80;;
3267;SDS011;1646;52.450;13.326;2022-07-06T08:46:29;1.57;;;0.83;;
3267;SDS011;1646;52.450;13.326;2022-07-06T08:51:29;3.43;;;0.93;;
3267;SDS011;1646;52.450;13.326;2022-07-06T08:56:27;4.37;;;0.97;;
3267;SDS011;1646;52.450;13.326;2022-07-06T09:01:28;1.90;;;1.00;;
3267;SDS011;1646;52.450;13.326;2022-07-06T09:06:27;3.37;;;0.90;;
3267;SDS011;1646;52.450;13.326;2022-07-06T09:11:25;0.70;;;0.70;;
3267;SDS011;1646;52.450;13.326;2022-07-06T09:16:25;4.60;;;0.90;;
3267;SDS011;1646;52.450;13.326;2022-07-06T09:21:36;8.50;;;1.20;;
3267;SDS011;1646;52.450;13.326;2022-07-06T09:26:35;2.90;;;0.77;;
3267;SDS011;1646;52.450;13.326;2022-07-06T09:31:33;3.43;;;0.83;;
3267;SDS011;1646;52.450;13.326;2022-07-06T09:36:41;5.80;;;0.83;;
3267;SDS011;1646;52.450;13.326;2022-07-06T09:41:41;0.80;;;0.80;;
3267;SDS011;1646;52.450;13.326;2022-07-06T09:46:40;1.17;;;0.90;;
3267;SDS011;1646;52.450;13.326;2022-07-06T09:51:40;1.93;;;0.67;;
3267;SDS011;1646;52.450;13.326;2022-07-06T09:56:38;2.73;;;0.77;;
3267;SDS011;1646;52.450;13.326;2022-07-06T10:01:37;2.33;;;0.70;;
3267;SDS011;1646;52.450;13.326;2022-07-06T10:06:36;0.97;;;0.83;;
3267;SDS011;1646;52.450;13.326;2022-07-06T10:11:37;2.10;;;0.93;;
3267;SDS011;1646;52.450;13.326;2022-07-06T10:16:37;1.63;;;0.70;;
3267;SDS011;1646;52.450;13.326;2022-07-06T10:21:36;2.87;;;2.03;;
3267;SDS011;1646;52.450;13.326;2022-07-06T10:26:37;5.23;;;0.87;;
3267;SDS011;1646;52.450;13.326;2022-07-06T10:31:36;0.70;;;0.70;;
3267;SDS011;1646;52.450;13.326;2022-07-06T10:36:37;5.53;;;0.70;;
3267;SDS011;1646;52.450;13.326;2022-07-06T10:41:38;3.17;;;0.70;;
3267;SDS011;1646;52.450;13.326;2022-07-06T10:46:36;2.80;;;0.90;;
3267;SDS011;1646;52.450;13.326;2022-07-06T10:51:34;5.00;;;1.10;;
3267;SDS011;1646;52.450;13.326;2022-07-06T10:56:41;1.17;;;0.60;;
3267;SDS011;1646;52.450;13.326;2022-07-06T11:01:42;3.53;;;0.80;;
3267;SDS011;1646;52.450;13.326;2022-07-06T11:07:11;1.43;;;0.60;;
3267;SDS011;1646;52.450;13.326;2022-07-06T11:12:11;1.20;;;0.80;;
3267;SDS011;1646;52.450;13.326;2022-07-06T11:17:13;1.37;;;0.80;;
3267;SDS011;1646;52.450;13.326;2022-07-06T11:22:11;4.70;;;1.63;;
3267;SDS011;1646;52.450;13.326;2022-07-06T11:27:13;4.30;;;1.07;;
3267;SDS011;1646;52.450;13.326;2022-07-06T11:32:13;1.47;;;0.90;;
3267;SDS011;1646;52.450;13.326;2022-07-06T11:37:11;2.47;;;1.00;;
3267;SDS011;1646;52.450;13.326;2022-07-06T11:42:11;1.37;;;1.03;;
3267;SDS011;1646;52.450;13.326;2022-07-06T11:47:12;2.90;;;1.00;;
3267;SDS011;1646;52.450;13.326;2022-07-06T11:52:19;1.97;;;0.90;;
3267;SDS011;1646;52.450;13.326;2022-07-06T11:57:19;1.37;;;0.90;;
3267;SDS011;1646;52.450;13.326;2022-07-06T12:02:20;2.40;;;1.23;;
3267;SDS011;1646;52.450;13.326;2022-07-06T12:07:19;1.83;;;0.70;;
3267;SDS011;1646;52.450;13.326;2022-07-06T12:12:17;1.10;;;0.60;;
3267;SDS011;1646;52.450;13.326;2022-07-06T12:17:16;1.43;;;0.70;;
3267;SDS011;1646;52.450;13.326;2022-07-06T12:22:23;0.60;;;0.60;;
3267;SDS011;1646;52.450;13.326;2022-07-06T12:27:22;2.30;;;1.40;;
3267;SDS011;1646;52.450;13.326;2022-07-06T12:32:21;4.70;;;1.20;;
3267;SDS011;1646;52.450;13.326;2022-07-06T12:37:21;1.57;;;0.70;;
3267;SDS011;1646;52.450;13.326;2022-07-06T12:42:19;1.90;;;0.80;;
3267;SDS011;1646;52.450;13.326;2022-07-06T12:47:17;1.80;;;1.00;;
3267;SDS011;1646;52.450;13.326;2022-07-06T12:52:17;2.63;;;0.80;;
3267;SDS011;1646;52.450;13.326;2022-07-06T12:57:17;2.73;;;1.33;;
3267;SDS011;1646;52.450;13.326;2022-07-06T13:02:18;2.03;;;1.13;;
3267;SDS011;1646;52.450;13.326;2022-07-06T13:07:39;4.10;;;2.57;;
3267;SDS011;1646;52.450;13.326;2022-07-06T13:12:43;10.20;;;3.80;;
3267;SDS011;1646;52.450;13.326;2022-07-06T13:17:41;9.83;;;5.73;;
3267;SDS011;1646;52.450;13.326;2022-07-06T13:22:40;9.80;;;7.10;;
3267;SDS011;1646;52.450;13.326;2022-07-06T13:27:38;9.47;;;6.37;;
3267;SDS011;1646;52.450;13.326;2022-07-06T13:32:37;9.33;;;6.63;;
3267;SDS011;1646;52.450;13.326;2022-07-06T13:37:36;10.37;;;7.50;;
3267;SDS011;1646;52.450;13.326;2022-07-06T13:42:34;8.60;;;5.87;;
3267;SDS011;1646;52.450;13.326;2022-07-06T13:47:32;8.20;;;3.30;;
3267;SDS011;1646;52.450;13.326;2022-07-06T13:52:31;5.57;;;2.90;;
3267;SDS011;1646;52.450;13.326;2022-07-06T13:57:29;12.50;;;5.03;;
3267;SDS011;1646;52.450;13.326;2022-07-06T14:02:27;6.30;;;4.40;;
3267;SDS011;1646;52.450;13.326;2022-07-06T14:07:26;7.63;;;3.13;;
3267;SDS011;1646;52.450;13.326;2022-07-06T14:12:26;1.97;;;1.57;;
3267;SDS011;1646;52.450;13.326;2022-07-06T14:17:24;2.53;;;1.27;;
3267;SDS011;1646;52.450;13.326;2022-07-06T14:22:23;2.30;;;1.30;;
3267;SDS011;1646;52.450;13.326;2022-07-06T14:27:21;12.40;;;1.40;;
3267;SDS011;1646;52.450;13.326;2022-07-06T14:32:20;1.27;;;0.63;;
3267;SDS011;1646;52.450;13.326;2022-07-06T14:37:18;3.47;;;1.00;;
3267;SDS011;1646;52.450;13.326;2022-07-06T14:42:16;1.90;;;0.80;;
3267;SDS011;1646;52.450;13.326;2022-07-06T14:47:15;7.30;;;0.93;;
3267;SDS011;1646;52.450;13.326;2022-07-06T14:52:14;3.97;;;1.57;;
3267;SDS011;1646;52.450;13.326;2022-07-06T14:57:12;5.57;;;2.23;;
3267;SDS011;1646;52.450;13.326;2022-07-06T15:02:10;7.67;;;2.20;;
3267;SDS011;1646;52.450;13.326;2022-07-06T15:07:10;3.00;;;2.63;;
3267;SDS011;1646;52.450;13.326;2022-07-06T15:12:10;7.33;;;3.23;;
3267;SDS011;1646;52.450;13.326;2022-07-06T15:17:08;4.53;;;2.37;;
3267;SDS011;1646;52.450;13.326;2022-07-06T15:22:06;3.50;;;1.60;;
3267;SDS011;1646;52.450;13.326;2022-07-06T15:27:05;4.13;;;1.60;;
3267;SDS011;1646;52.450;13.326;2022-07-06T15:32:05;2.20;;;0.80;;
3267;SDS011;1646;52.450;13.326;2022-07-06T15:37:04;2.77;;;0.90;;
3267;SDS011;1646;52.450;13.326;2022-07-06T15:42:03;2.67;;;0.70;;
3267;SDS011;1646;52.450;13.326;2022-07-06T15:47:03;1.57;;;0.60;;
3267;SDS011;1646;52.450;13.326;2022-07-06T15:52:04;2.93;;;1.33;;
3267;SDS011;1646;52.450;13.326;2022-07-06T15:57:03;4.20;;;1.10;;
3267;SDS011;1646;52.450;13.326;2022-07-06T16:02:02;1.67;;;0.80;;
3267;SDS011;1646;52.450;13.326;2022-07-06T16:07:02;1.70;;;0.80;;
3267;SDS011;1646;52.450;13.326;2022-07-06T16:12:20;1.53;;;0.70;;
3267;SDS011;1646;52.450;13.326;2022-07-06T16:17:20;2.67;;;0.93;;
3267;SDS011;1646;52.450;13.326;2022-07-06T16:22:18;7.03;;;0.90;;
3267;SDS011;1646;52.450;13.326;2022-07-06T16:27:16;3.17;;;1.07;;
3267;SDS011;1646;52.450;13.326;2022-07-06T16:32:14;2.10;;;0.87;;
3267;SDS011;1646;52.450;13.326;2022-07-06T16:37:14;3.27;;;1.10;;
3267;SDS011;1646;52.450;13.326;2022-07-06T16:42:12;2.30;;;0.90;;
3267;SDS011;1646;52.450;13.326;2022-07-06T16:47:11;3.57;;;0.70;;
3267;SDS011;1646;52.450;13.326;2022-07-06T16:52:10;2.03;;;0.80;;
3267;SDS011;1646;52.450;13.326;2022-07-06T16:57:09;1.43;;;0.80;;
3267;SDS011;1646;52.450;13.326;2022-07-06T17:02:07;1.40;;;0.70;;
3267;SDS011;1646;52.450;13.326;2022-07-06T17:07:06;1.03;;;0.80;;
3267;SDS011;1646;52.450;13.326;2022-07-06T17:12:04;0.57;;;0.57;;
3267;SDS011;1646;52.450;13.326;2022-07-06T17:17:04;1.70;;;0.70;;
3267;SDS011;1646;52.450;13.326;2022-07-06T17:22:02;2.10;;;0.77;;
3267;SDS011;1646;52.450;13.326;2022-07-06T17:27:01;2.30;;;0.90;;
3267;SDS011;1646;52.450;13.326;2022-07-06T17:32:00;4.63;;;0.70;;
3267;SDS011;1646;52.450;13.326;2022-07-06T17:37:07;6.30;;;0.80;;
3267;SDS011;1646;52.450;13.326;2022-07-06T17:42:06;1.73;;;0.90;;
3267;SDS011;1646;52.450;13.326;2022-07-06T17:47:06;0.90;;;0.70;;
3267;SDS011;1646;52.450;13.326;2022-07-06T17:52:04;1.80;;;0.90;;
3267;SDS011;1646;52.450;13.326;2022-07-06T17:57:12;4.17;;;0.70;;
3267;SDS011;1646;52.450;13.326;2022-07-06T18:02:10;1.90;;;0.97;;
3267;SDS011;1646;52.450;13.326;2022-07-06T18:07:09;2.70;;;0.90;;
3267;SDS011;1646;52.450;13.326;2022-07-06T18:12:07;2.60;;;0.80;;
3267;SDS011;1646;52.450;13.326;2022-07-06T18:17:07;4.83;;;0.90;;
3267;SDS011;1646;52.450;13.326;2022-07-06T18:22:06;0.90;;;0.77;;
3267;SDS011;1646;52.450;13.326;2022-07-06T18:27:04;1.07;;;0.80;;
3267;SDS011;1646;52.450;13.326;2022-07-06T18:32:02;3.80;;;0.70;;
3267;SDS011;1646;52.450;13.326;2022-07-06T18:37:03;1.30;;;0.73;;
3267;SDS011;1646;52.450;13.326;2022-07-06T18:42:01;2.60;;;1.13;;
3267;SDS011;1646;52.450;13.326;2022-07-06T18:47:00;0.80;;;0.80;;
3267;SDS011;1646;52.450;13.326;2022-07-06T18:51:58;1.23;;;0.80;;
3267;SDS011;1646;52.450;13.326;2022-07-06T18:56:57;1.67;;;0.90;;
3267;SDS011;1646;52.450;13.326;2022-07-06T19:01:56;1.87;;;0.80;;
3267;SDS011;1646;52.450;13.326;2022-07-06T19:06:54;1.90;;;0.90;;
3267;SDS011;1646;52.450;13.326;2022-07-06T19:11:52;3.90;;;1.03;;
3267;SDS011;1646;52.450;13.326;2022-07-06T19:16:51;2.80;;;1.10;;
3267;SDS011;1646;52.450;13.326;2022-07-06T19:21:50;1.73;;;0.90;;
3267;SDS011;1646;52.450;13.326;2022-07-06T19:26:48;1.77;;;1.27;;
3267;SDS011;1646;52.450;13.326;2022-07-06T19:31:46;2.03;;;0.80;;
3267;SDS011;1646;52.450;13.326;2022-07-06T19:36:46;2.07;;;0.90;;
3267;SDS011;1646;52.450;13.326;2022-07-06T19:41:47;1.53;;;0.80;;
3267;SDS011;1646;52.450;13.326;2022-07-06T19:46:46;2.33;;;1.00;;
3267;SDS011;1646;52.450;13.326;2022-07-06T19:51:46;12.73;;;1.20;;
3267;SDS011;1646;52.450;13.326;2022-07-06T19:56:44;4.00;;;1.07;;
3267;SDS011;1646;52.450;13.326;2022-07-06T20:01:42;2.50;;;1.27;;
3267;SDS011;1646;52.450;13.326;2022-07-06T20:06:40;3.87;;;1.30;;
3267;SDS011;1646;52.450;13.326;2022-07-06T20:11:40;5.17;;;1.77;;
3267;SDS011;1646;52.450;13.326;2022-07-06T20:16:39;3.60;;;1.00;;
3267;SDS011;1646;52.450;13.326;2022-07-06T20:21:37;6.83;;;0.90;;
3267;SDS011;1646;52.450;13.326;2022-07-06T20:26:35;3.93;;;1.00;;
3267;SDS011;1646;52.450;13.326;2022-07-06T20:31:34;3.33;;;1.60;;
3267;SDS011;1646;52.450;13.326;2022-07-06T20:36:32;3.07;;;1.00;;
3267;SDS011;1646;52.450;13.326;2022-07-06T20:41:30;1.03;;;0.87;;
3267;SDS011;1646;52.450;13.326;2022-07-06T20:46:28;2.80;;;1.63;;
3267;SDS011;1646;52.450;13.326;2022-07-06T20:51:28;4.17;;;1.23;;
3267;SDS011;1646;52.450;13.326;2022-07-06T20:56:26;1.20;;;0.97;;
3267;SDS011;1646;52.450;13.326;2022-07-06T21:01:24;1.37;;;1.13;;
3267;SDS011;1646;52.450;13.326;2022-07-06T21:06:22;3.60;;;1.33;;
3267;SDS011;1646;52.450;13.326;2022-07-06T21:11:22;2.00;;;1.07;;
3267;SDS011;1646;52.450;13.326;2022-07-06T21:16:20;5.13;;;1.40;;
3267;SDS011;1646;52.450;13.326;2022-07-06T21:21:18;5.30;;;1.40;;
3267;SDS011;1646;52.450;13.326;2022-07-06T21:26:16;4.73;;;1.10;;
3267;SDS011;1646;52.450;13.326;2022-07-06T21:31:15;3.13;;;1.40;;
3267;SDS011;1646;52.450;13.326;2022-07-06T21:36:14;3.70;;;1.90;;
3267;SDS011;1646;52.450;13.326;2022-07-06T21:41:12;7.40;;;2.23;;
3267;SDS011;1646;52.450;13.326;2022-07-06T21:46:11;1.60;;;1.50;;
3267;SDS011;1646;52.450;13.326;2022-07-06T21:51:10;2.70;;;1.70;;
3267;SDS011;1646;52.450;13.326;2022-07-06T21:56:09;1.80;;;1.20;;
3267;SDS011;1646;52.450;13.326;2022-07-06T22:01:07;3.17;;;1.50;;
3267;SDS011;1646;52.450;13.326;2022-07-06T22:06:05;7.90;;;1.40;;
3267;SDS011;1646;52.450;13.326;2022-07-06T22:11:05;6.13;;;1.40;;
3267;SDS011;1646;52.450;13.326;2022-07-06T22:16:03;1.60;;;1.50;;
3267;SDS011;1646;52.450;13.326;2022-07-06T22:21:02;2.20;;;1.10;;
3267;SDS011;1646;52.450;13.326;2022-07-06T22:26:00;3.83;;;1.10;;
3267;SDS011;1646;52.450;13.326;2022-07-06T22:30:59;7.63;;;1.87;;
3267;SDS011;1646;52.450;13.326;2022-07-06T22:35:57;2.30;;;1.10;;
3267;SDS011;1646;52.450;13.326;2022-07-06T22:40:55;1.93;;;1.20;;
3267;SDS011;1646;52.450;13.326;2022-07-06T22:46:05;4.00;;;1.43;;
3267;SDS011;1646;52.450;13.326;2022-07-06T22:51:06;1.87;;;1.30;;
3267;SDS011;1646;52.450;13.326;2022-07-06T22:56:04;2.87;;;1.40;;
3267;SDS011;1646;52.450;13.326;2022-07-06T23:01:05;2.63;;;1.40;;
3267;SDS011;1646;52.450;13.326;2022-07-06T23:06:03;3.00;;;1.30;;
3267;SDS011;1646;52.450;13.326;2022-07-06T23:11:02;1.50;;;1.07;;
3267;SDS011;1646;52.450;13.326;2022-07-06T23:16:00;3.43;;;1.30;;
3267;SDS011;1646;52.450;13.326;2022-07-06T23:21:00;1.93;;;0.90;;
3267;SDS011;1646;52.450;13.326;2022-07-06T23:25:58;2.03;;;1.00;;
3267;SDS011;1646;52.450;13.326;2022-07-06T23:30:56;1.23;;;0.93;;
3267;SDS011;1646;52.450;13.326;2022-07-06T23:35:54;2.70;;;0.90;;
3267;SDS011;1646;52.450;13.326;2022-07-06T23:40:53;1.40;;;0.90;;
3267;SDS011;1646;52.450;13.326;2022-07-06T23:45:51;4.13;;;1.10;;
3267;SDS011;1646;52.450;13.326;2022-07-06T23:50:49;5.80;;;1.13;;
3267;SDS011;1646;52.450;13.326;2022-07-06T23:55:47;1.57;;;1.10;;
